sensor_id;sensor_type;location;lat;lon;timestamp;temperature;humidity
5675;DHT22;2860;54.284;10.158;2023-07-30T00:00:36;13.70;99.90
5675;DHT22;2860;54.284;10.158;2023-07-30T00:03:02;13.60;99.90
5675;DHT22;2860;54.284;10.158;2023-07-30T00:05:27;13.60;99.90
5675;DHT22;2860;54.284;10.158;2023-07-30T00:07:53;13.50;99.90
5675;DHT22;2860;54.284;10.158;2023-07-30T00:10:20;13.50;99.90
5675;DHT22;2860;54.284;10.158;2023-07-30T00:12:45;13.50;99.90
5675;DHT22;2860;54.284;10.158;2023-07-30T00:15:11;13.50;99.90
5675;DHT22;2860;54.284;10.158;2023-07-30T00:17:38;13.50;99.90
5675;DHT22;2860;54.284;10.158;2023-07-30T00:20:05;13.50;99.90
5675;DHT22;2860;54.284;10.158;2023-07-30T00:22:31;13.40;99.90
5675;DHT22;2860;54.284;10.158;2023-07-30T00:24:56;13.40;99.90
5675;DHT22;2860;54.284;10.158;2023-07-30T00:27:22;13.40;99.90
5675;DHT22;2860;54.284;10.158;2023-07-30T00:29:47;13.40;99.90
5675;DHT22;2860;54.284;10.158;2023-07-30T00:32:12;13.40;99.90
5675;DHT22;2860;54.284;10.158;2023-07-30T00:34:41;13.40;99.90
5675;DHT22;2860;54.284;10.158;2023-07-30T00:37:06;13.40;99.90
5675;DHT22;2860;54.284;10.158;2023-07-30T00:39:32;13.40;99.90
5675;DHT22;2860;54.284;10.158;2023-07-30T00:41:57;13.40;99.90
5675;DHT22;2860;54.284;10.158;2023-07-30T00:44:23;13.40;99.90
5675;DHT22;2860;54.284;10.158;2023-07-30T00:46:49;13.50;99.90
5675;DHT22;2860;54.284;10.158;2023-07-30T00:49:15;13.50;99.90
5675;DHT22;2860;54.284;10.158;2023-07-30T00:51:41;13.40;99.90
5675;DHT22;2860;54.284;10.158;2023-07-30T00:54:07;13.40;99.90
5675;DHT22;2860;54.284;10.158;2023-07-30T00:56:33;13.40;99.90
5675;DHT22;2860;54.284;10.158;2023-07-30T00:58:59;13.40;99.90
5675;DHT22;2860;54.284;10.158;2023-07-30T01:01:25;13.50;99.90
5675;DHT22;2860;54.284;10.158;2023-07-30T01:03:51;13.50;99.90
5675;DHT22;2860;54.284;10.158;2023-07-30T01:06:17;13.50;99.90
5675;DHT22;2860;54.284;10.158;2023-07-30T01:08:42;13.60;99.90
5675;DHT22;2860;54.284;10.158;2023-07-30T01:11:09;13.60;99.90
5675;DHT22;2860;54.284;10.158;2023-07-30T01:13:35;13.60;99.90
5675;DHT22;2860;54.284;10.158;2023-07-30T01:16:01;13.70;99.90
5675;DHT22;2860;54.284;10.158;2023-07-30T01:18:28;13.80;99.90
5675;DHT22;2860;54.284;10.158;2023-07-30T01:20:58;13.80;99.90
5675;DHT22;2860;54.284;10.158;2023-07-30T01:23:24;13.90;99.90
5675;DHT22;2860;54.284;10.158;2023-07-30T01:26:01;13.90;99.90
5675;DHT22;2860;54.284;10.158;2023-07-30T01:28:29;13.90;99.90
5675;DHT22;2860;54.284;10.158;2023-07-30T01:31:00;14.00;99.90
5675;DHT22;2860;54.284;10.158;2023-07-30T01:33:27;14.10;99.90
5675;DHT22;2860;54.284;10.158;2023-07-30T01:35:55;14.10;99.90
5675;DHT22;2860;54.284;10.158;2023-07-30T01:38:21;14.20;99.90
5675;DHT22;2860;54.284;10.158;2023-07-30T01:40:47;14.20;99.90
5675;DHT22;2860;54.284;10.158;2023-07-30T01:43:13;14.30;99.90
5675;DHT22;2860;54.284;10.158;2023-07-30T01:45:38;14.30;99.90
5675;DHT22;2860;54.284;10.158;2023-07-30T01:48:05;14.30;99.90
5675;DHT22;2860;54.284;10.158;2023-07-30T01:50:30;14.30;99.90
5675;DHT22;2860;54.284;10.158;2023-07-30T01:52:56;14.40;99.90
5675;DHT22;2860;54.284;10.158;2023-07-30T01:55:21;14.40;99.90
5675;DHT22;2860;54.284;10.158;2023-07-30T01:57:47;14.50;99.90
5675;DHT22;2860;54.284;10.158;2023-07-30T02:00:13;14.50;99.90
5675;DHT22;2860;54.284;10.158;2023-07-30T02:02:38;14.50;99.90
5675;DHT22;2860;54.284;10.158;2023-07-30T02:05:04;14.50;99.90
5675;DHT22;2860;54.284;10.158;2023-07-30T02:07:29;14.60;99.90
5675;DHT22;2860;54.284;10.158;2023-07-30T02:09:56;14.60;99.90
5675;DHT22;2860;54.284;10.158;2023-07-30T02:12:21;14.60;99.90
5675;DHT22;2860;54.284;10.158;2023-07-30T02:14:47;14.60;99.90
5675;DHT22;2860;54.284;10.158;2023-07-30T02:17:12;14.60;99.90
5675;DHT22;2860;54.284;10.158;2023-07-30T02:19:38;14.70;99.90
5675;DHT22;2860;54.284;10.158;2023-07-30T02:22:03;14.80;99.90
5675;DHT22;2860;54.284;10.158;2023-07-30T02:24:29;14.80;99.90
5675;DHT22;2860;54.284;10.158;2023-07-30T02:26:55;14.80;99.90
5675;DHT22;2860;54.284;10.158;2023-07-30T02:29:20;14.80;99.90
5675;DHT22;2860;54.284;10.158;2023-07-30T02:31:46;14.80;99.90
5675;DHT22;2860;54.284;10.158;2023-07-30T02:34:11;14.80;99.90
5675;DHT22;2860;54.284;10.158;2023-07-30T02:36:37;14.80;99.90
5675;DHT22;2860;54.284;10.158;2023-07-30T02:39:02;14.90;99.90
5675;DHT22;2860;54.284;10.158;2023-07-30T02:41:28;14.80;99.90
5675;DHT22;2860;54.284;10.158;2023-07-30T02:43:53;14.80;99.90
5675;DHT22;2860;54.284;10.158;2023-07-30T02:46:19;14.80;99.90
5675;DHT22;2860;54.284;10.158;2023-07-30T02:48:44;14.70;99.90
5675;DHT22;2860;54.284;10.158;2023-07-30T02:51:10;14.60;99.90
5675;DHT22;2860;54.284;10.158;2023-07-30T02:53:35;14.60;99.90
5675;DHT22;2860;54.284;10.158;2023-07-30T02:56:01;14.60;99.90
5675;DHT22;2860;54.284;10.158;2023-07-30T02:58:26;14.50;99.90
5675;DHT22;2860;54.284;10.158;2023-07-30T03:00:52;14.50;99.90
5675;DHT22;2860;54.284;10.158;2023-07-30T03:03:17;14.50;99.90
5675;DHT22;2860;54.284;10.158;2023-07-30T03:05:43;14.40;99.90
5675;DHT22;2860;54.284;10.158;2023-07-30T03:08:08;14.40;99.90
5675;DHT22;2860;54.284;10.158;2023-07-30T03:10:36;14.30;99.90
5675;DHT22;2860;54.284;10.158;2023-07-30T03:13:02;14.30;99.90
5675;DHT22;2860;54.284;10.158;2023-07-30T03:15:27;14.20;99.90
5675;DHT22;2860;54.284;10.158;2023-07-30T03:17:53;14.20;99.90
5675;DHT22;2860;54.284;10.158;2023-07-30T03:20:18;14.20;99.90
5675;DHT22;2860;54.284;10.158;2023-07-30T03:22:44;14.20;99.90
5675;DHT22;2860;54.284;10.158;2023-07-30T03:25:09;14.10;99.90
5675;DHT22;2860;54.284;10.158;2023-07-30T03:27:35;14.00;99.90
5675;DHT22;2860;54.284;10.158;2023-07-30T03:30:00;14.00;99.90
5675;DHT22;2860;54.284;10.158;2023-07-30T03:32:26;14.00;99.90
5675;DHT22;2860;54.284;10.158;2023-07-30T03:34:51;14.00;99.90
5675;DHT22;2860;54.284;10.158;2023-07-30T03:37:17;14.00;99.90
5675;DHT22;2860;54.284;10.158;2023-07-30T03:39:42;14.10;99.90
5675;DHT22;2860;54.284;10.158;2023-07-30T03:42:08;14.10;99.90
5675;DHT22;2860;54.284;10.158;2023-07-30T03:44:33;14.10;99.90
5675;DHT22;2860;54.284;10.158;2023-07-30T03:46:59;14.10;99.90
5675;DHT22;2860;54.284;10.158;2023-07-30T03:49:24;14.10;99.90
5675;DHT22;2860;54.284;10.158;2023-07-30T03:51:50;14.10;99.90
5675;DHT22;2860;54.284;10.158;2023-07-30T03:54:15;14.10;99.90
5675;DHT22;2860;54.284;10.158;2023-07-30T03:56:41;14.10;99.90
5675;DHT22;2860;54.284;10.158;2023-07-30T03:59:06;14.00;99.90
5675;DHT22;2860;54.284;10.158;2023-07-30T04:01:32;14.00;99.90
5675;DHT22;2860;54.284;10.158;2023-07-30T04:03:57;14.00;99.90
5675;DHT22;2860;54.284;10.158;2023-07-30T04:06:23;14.00;99.90
5675;DHT22;2860;54.284;10.158;2023-07-30T04:08:48;14.00;99.90
5675;DHT22;2860;54.284;10.158;2023-07-30T04:11:14;14.00;99.90
5675;DHT22;2860;54.284;10.158;2023-07-30T04:13:39;14.00;99.90
5675;DHT22;2860;54.284;10.158;2023-07-30T04:16:06;14.00;99.90
5675;DHT22;2860;54.284;10.158;2023-07-30T04:18:31;14.00;99.90
5675;DHT22;2860;54.284;10.158;2023-07-30T04:20:57;14.10;99.90
5675;DHT22;2860;54.284;10.158;2023-07-30T04:23:22;14.20;99.90
5675;DHT22;2860;54.284;10.158;2023-07-30T04:25:51;14.30;99.90
5675;DHT22;2860;54.284;10.158;2023-07-30T04:28:17;14.40;99.90
5675;DHT22;2860;54.284;10.158;2023-07-30T04:30:43;14.50;99.90
5675;DHT22;2860;54.284;10.158;2023-07-30T04:33:08;14.70;99.90
5675;DHT22;2860;54.284;10.158;2023-07-30T04:35:34;14.80;99.90
5675;DHT22;2860;54.284;10.158;2023-07-30T04:38:00;14.90;99.90
5675;DHT22;2860;54.284;10.158;2023-07-30T04:40:25;15.10;99.90
5675;DHT22;2860;54.284;10.158;2023-07-30T04:42:51;15.20;99.90
5675;DHT22;2860;54.284;10.158;2023-07-30T04:45:16;15.30;99.90
5675;DHT22;2860;54.284;10.158;2023-07-30T04:47:42;15.40;99.90
5675;DHT22;2860;54.284;10.158;2023-07-30T04:50:08;15.50;99.90
5675;DHT22;2860;54.284;10.158;2023-07-30T04:52:33;15.60;99.90
5675;DHT22;2860;54.284;10.158;2023-07-30T04:54:59;15.60;99.90
5675;DHT22;2860;54.284;10.158;2023-07-30T04:57:24;15.70;99.90
5675;DHT22;2860;54.284;10.158;2023-07-30T04:59:50;15.80;99.90
5675;DHT22;2860;54.284;10.158;2023-07-30T05:02:15;15.90;99.90
5675;DHT22;2860;54.284;10.158;2023-07-30T05:04:41;16.00;99.90
5675;DHT22;2860;54.284;10.158;2023-07-30T05:07:06;16.00;99.90
5675;DHT22;2860;54.284;10.158;2023-07-30T05:09:32;16.10;99.90
5675;DHT22;2860;54.284;10.158;2023-07-30T05:11:57;16.20;99.90
5675;DHT22;2860;54.284;10.158;2023-07-30T05:14:23;16.20;99.90
5675;DHT22;2860;54.284;10.158;2023-07-30T05:16:49;16.30;99.90
5675;DHT22;2860;54.284;10.158;2023-07-30T05:19:16;16.40;99.90
5675;DHT22;2860;54.284;10.158;2023-07-30T05:21:41;16.50;99.90
5675;DHT22;2860;54.284;10.158;2023-07-30T05:24:07;16.50;99.90
5675;DHT22;2860;54.284;10.158;2023-07-30T05:26:33;16.60;99.90
5675;DHT22;2860;54.284;10.158;2023-07-30T05:28:58;16.60;99.90
5675;DHT22;2860;54.284;10.158;2023-07-30T05:31:24;16.70;99.90
5675;DHT22;2860;54.284;10.158;2023-07-30T05:33:49;16.70;99.90
5675;DHT22;2860;54.284;10.158;2023-07-30T05:36:15;16.70;99.90
5675;DHT22;2860;54.284;10.158;2023-07-30T05:38:40;16.70;99.90
5675;DHT22;2860;54.284;10.158;2023-07-30T05:41:06;16.70;99.90
5675;DHT22;2860;54.284;10.158;2023-07-30T05:43:31;16.70;99.90
5675;DHT22;2860;54.284;10.158;2023-07-30T05:45:57;16.80;99.90
5675;DHT22;2860;54.284;10.158;2023-07-30T05:48:22;16.80;99.90
5675;DHT22;2860;54.284;10.158;2023-07-30T05:50:48;16.90;99.90
5675;DHT22;2860;54.284;10.158;2023-07-30T05:53:14;16.90;99.90
5675;DHT22;2860;54.284;10.158;2023-07-30T05:55:39;17.00;99.90
5675;DHT22;2860;54.284;10.158;2023-07-30T05:58:05;17.00;99.90
5675;DHT22;2860;54.284;10.158;2023-07-30T06:00:30;17.10;99.90
5675;DHT22;2860;54.284;10.158;2023-07-30T06:02:56;17.10;99.90
5675;DHT22;2860;54.284;10.158;2023-07-30T06:05:21;17.20;99.90
5675;DHT22;2860;54.284;10.158;2023-07-30T06:07:47;17.30;99.90
5675;DHT22;2860;54.284;10.158;2023-07-30T06:10:12;17.40;99.90
5675;DHT22;2860;54.284;10.158;2023-07-30T06:12:38;17.40;99.90
5675;DHT22;2860;54.284;10.158;2023-07-30T06:15:05;17.40;99.90
5675;DHT22;2860;54.284;10.158;2023-07-30T06:17:31;17.40;99.90
5675;DHT22;2860;54.284;10.158;2023-07-30T06:19:57;17.50;99.90
5675;DHT22;2860;54.284;10.158;2023-07-30T06:22:22;17.60;99.90
5675;DHT22;2860;54.284;10.158;2023-07-30T06:24:48;17.70;99.90
5675;DHT22;2860;54.284;10.158;2023-07-30T06:27:13;18.00;99.90
5675;DHT22;2860;54.284;10.158;2023-07-30T06:29:39;18.50;99.90
5675;DHT22;2860;54.284;10.158;2023-07-30T06:32:05;19.10;99.90
5675;DHT22;2860;54.284;10.158;2023-07-30T06:34:30;19.40;99.90
5675;DHT22;2860;54.284;10.158;2023-07-30T06:36:56;19.60;99.90
5675;DHT22;2860;54.284;10.158;2023-07-30T06:39:21;19.80;99.90
5675;DHT22;2860;54.284;10.158;2023-07-30T06:41:47;19.90;99.90
5675;DHT22;2860;54.284;10.158;2023-07-30T06:44:12;20.00;99.90
5675;DHT22;2860;54.284;10.158;2023-07-30T06:46:38;19.90;99.90
5675;DHT22;2860;54.284;10.158;2023-07-30T06:49:03;19.70;99.90
5675;DHT22;2860;54.284;10.158;2023-07-30T06:51:29;19.70;99.90
5675;DHT22;2860;54.284;10.158;2023-07-30T06:53:55;19.40;99.90
5675;DHT22;2860;54.284;10.158;2023-07-30T06:56:20;19.20;99.90
5675;DHT22;2860;54.284;10.158;2023-07-30T06:58:46;19.10;99.90
5675;DHT22;2860;54.284;10.158;2023-07-30T07:01:11;19.20;99.90
5675;DHT22;2860;54.284;10.158;2023-07-30T07:03:37;19.30;99.90
5675;DHT22;2860;54.284;10.158;2023-07-30T07:06:02;19.30;99.90
5675;DHT22;2860;54.284;10.158;2023-07-30T07:08:28;19.30;99.90
5675;DHT22;2860;54.284;10.158;2023-07-30T07:10:53;19.30;99.90
5675;DHT22;2860;54.284;10.158;2023-07-30T07:13:19;19.10;99.90
5675;DHT22;2860;54.284;10.158;2023-07-30T07:15:44;19.00;99.90
5675;DHT22;2860;54.284;10.158;2023-07-30T07:18:10;18.90;99.90
5675;DHT22;2860;54.284;10.158;2023-07-30T07:20:37;18.80;99.90
5675;DHT22;2860;54.284;10.158;2023-07-30T07:23:03;18.90;99.90
5675;DHT22;2860;54.284;10.158;2023-07-30T07:25:29;19.20;99.90
5675;DHT22;2860;54.284;10.158;2023-07-30T07:27:54;19.80;99.90
5675;DHT22;2860;54.284;10.158;2023-07-30T07:30:20;20.10;99.90
5675;DHT22;2860;54.284;10.158;2023-07-30T07:32:45;20.40;99.90
5675;DHT22;2860;54.284;10.158;2023-07-30T07:35:15;20.80;99.90
5675;DHT22;2860;54.284;10.158;2023-07-30T07:37:41;21.00;99.90
5675;DHT22;2860;54.284;10.158;2023-07-30T07:40:07;21.00;99.90
5675;DHT22;2860;54.284;10.158;2023-07-30T07:42:34;20.70;99.90
5675;DHT22;2860;54.284;10.158;2023-07-30T07:45:00;20.50;99.90
5675;DHT22;2860;54.284;10.158;2023-07-30T07:47:25;20.50;99.90
5675;DHT22;2860;54.284;10.158;2023-07-30T07:49:51;20.60;99.90
5675;DHT22;2860;54.284;10.158;2023-07-30T07:52:16;20.70;99.90
5675;DHT22;2860;54.284;10.158;2023-07-30T07:54:42;20.80;99.90
5675;DHT22;2860;54.284;10.158;2023-07-30T07:57:08;21.00;99.90
5675;DHT22;2860;54.284;10.158;2023-07-30T07:59:34;21.20;99.90
5675;DHT22;2860;54.284;10.158;2023-07-30T08:01:59;21.40;99.90
5675;DHT22;2860;54.284;10.158;2023-07-30T08:04:25;21.50;99.90
5675;DHT22;2860;54.284;10.158;2023-07-30T08:06:50;21.50;99.90
5675;DHT22;2860;54.284;10.158;2023-07-30T08:09:16;21.40;99.90
5675;DHT22;2860;54.284;10.158;2023-07-30T08:11:41;21.40;99.90
5675;DHT22;2860;54.284;10.158;2023-07-30T08:14:07;21.60;99.90
5675;DHT22;2860;54.284;10.158;2023-07-30T08:16:32;21.70;99.90
5675;DHT22;2860;54.284;10.158;2023-07-30T08:18:58;21.70;99.90
5675;DHT22;2860;54.284;10.158;2023-07-30T08:21:25;21.70;99.90
5675;DHT22;2860;54.284;10.158;2023-07-30T08:23:50;21.80;99.90
5675;DHT22;2860;54.284;10.158;2023-07-30T08:26:16;22.00;99.90
5675;DHT22;2860;54.284;10.158;2023-07-30T08:28:41;22.30;99.90
5675;DHT22;2860;54.284;10.158;2023-07-30T08:31:07;22.60;99.90
5675;DHT22;2860;54.284;10.158;2023-07-30T08:33:32;22.80;99.90
5675;DHT22;2860;54.284;10.158;2023-07-30T08:35:59;23.00;99.90
5675;DHT22;2860;54.284;10.158;2023-07-30T08:38:25;23.00;99.90
5675;DHT22;2860;54.284;10.158;2023-07-30T08:40:50;23.00;99.90
5675;DHT22;2860;54.284;10.158;2023-07-30T08:43:19;22.90;99.90
5675;DHT22;2860;54.284;10.158;2023-07-30T08:45:45;22.70;99.90
5675;DHT22;2860;54.284;10.158;2023-07-30T08:48:10;22.80;99.90
5675;DHT22;2860;54.284;10.158;2023-07-30T08:50:37;22.80;99.90
5675;DHT22;2860;54.284;10.158;2023-07-30T08:53:19;22.70;99.90
5675;DHT22;2860;54.284;10.158;2023-07-30T08:55:45;22.70;99.90
5675;DHT22;2860;54.284;10.158;2023-07-30T08:58:18;22.70;99.90
5675;DHT22;2860;54.284;10.158;2023-07-30T09:00:48;22.80;99.90
5675;DHT22;2860;54.284;10.158;2023-07-30T09:03:15;22.90;99.90
5675;DHT22;2860;54.284;10.158;2023-07-30T09:05:52;23.10;99.90
5675;DHT22;2860;54.284;10.158;2023-07-30T09:08:17;23.10;99.90
5675;DHT22;2860;54.284;10.158;2023-07-30T09:10:43;23.30;99.90
5675;DHT22;2860;54.284;10.158;2023-07-30T09:13:08;23.70;99.90
5675;DHT22;2860;54.284;10.158;2023-07-30T09:15:36;24.00;99.90
5675;DHT22;2860;54.284;10.158;2023-07-30T09:18:05;24.20;99.90
5675;DHT22;2860;54.284;10.158;2023-07-30T09:20:38;24.40;99.90
5675;DHT22;2860;54.284;10.158;2023-07-30T09:23:05;24.40;99.90
5675;DHT22;2860;54.284;10.158;2023-07-30T09:25:32;24.60;99.90
5675;DHT22;2860;54.284;10.158;2023-07-30T09:27:58;24.50;99.90
5675;DHT22;2860;54.284;10.158;2023-07-30T09:30:25;24.50;99.90
5675;DHT22;2860;54.284;10.158;2023-07-30T09:32:52;24.50;99.90
5675;DHT22;2860;54.284;10.158;2023-07-30T09:35:21;24.60;99.90
5675;DHT22;2860;54.284;10.158;2023-07-30T09:37:57;24.60;99.90
5675;DHT22;2860;54.284;10.158;2023-07-30T09:40:33;24.40;99.90
5675;DHT22;2860;54.284;10.158;2023-07-30T09:42:59;24.10;99.90
5675;DHT22;2860;54.284;10.158;2023-07-30T09:45:25;23.90;99.90
5675;DHT22;2860;54.284;10.158;2023-07-30T09:47:52;24.00;99.90
5675;DHT22;2860;54.284;10.158;2023-07-30T09:50:18;24.20;99.90
5675;DHT22;2860;54.284;10.158;2023-07-30T09:52:44;24.20;99.90
5675;DHT22;2860;54.284;10.158;2023-07-30T09:55:10;24.20;99.90
5675;DHT22;2860;54.284;10.158;2023-07-30T09:57:36;24.10;99.90
5675;DHT22;2860;54.284;10.158;2023-07-30T10:00:06;24.10;99.90
5675;DHT22;2860;54.284;10.158;2023-07-30T10:02:39;24.20;99.90
5675;DHT22;2860;54.284;10.158;2023-07-30T10:05:11;24.30;99.90
5675;DHT22;2860;54.284;10.158;2023-07-30T10:10:37;24.50;99.90
5675;DHT22;2860;54.284;10.158;2023-07-30T10:13:09;24.80;99.90
5675;DHT22;2860;54.284;10.158;2023-07-30T10:15:38;25.00;99.90
5675;DHT22;2860;54.284;10.158;2023-07-30T10:18:03;25.10;99.90
5675;DHT22;2860;54.284;10.158;2023-07-30T10:20:31;25.00;99.90
5675;DHT22;2860;54.284;10.158;2023-07-30T10:22:58;24.80;99.90
5675;DHT22;2860;54.284;10.158;2023-07-30T10:25:29;24.70;99.90
5675;DHT22;2860;54.284;10.158;2023-07-30T10:27:56;24.40;99.90
5675;DHT22;2860;54.284;10.158;2023-07-30T10:30:22;23.90;99.90
5675;DHT22;2860;54.284;10.158;2023-07-30T10:38:16;22.10;99.90
5675;DHT22;2860;54.284;10.158;2023-07-30T10:40:53;21.70;99.90
5675;DHT22;2860;54.284;10.158;2023-07-30T10:43:27;21.50;99.90
5675;DHT22;2860;54.284;10.158;2023-07-30T10:45:53;21.20;99.90
5675;DHT22;2860;54.284;10.158;2023-07-30T10:48:18;21.10;99.90
5675;DHT22;2860;54.284;10.158;2023-07-30T10:50:44;21.10;99.90
5675;DHT22;2860;54.284;10.158;2023-07-30T10:53:14;21.10;99.90
5675;DHT22;2860;54.284;10.158;2023-07-30T10:55:41;21.10;99.90
5675;DHT22;2860;54.284;10.158;2023-07-30T10:58:06;21.30;99.90
5675;DHT22;2860;54.284;10.158;2023-07-30T11:00:32;21.40;99.90
5675;DHT22;2860;54.284;10.158;2023-07-30T11:02:57;21.60;99.90
5675;DHT22;2860;54.284;10.158;2023-07-30T11:05:23;21.80;99.90
5675;DHT22;2860;54.284;10.158;2023-07-30T11:07:51;22.10;99.90
5675;DHT22;2860;54.284;10.158;2023-07-30T11:10:16;22.30;99.90
5675;DHT22;2860;54.284;10.158;2023-07-30T11:12:42;22.50;99.90
5675;DHT22;2860;54.284;10.158;2023-07-30T11:15:08;22.70;99.90
5675;DHT22;2860;54.284;10.158;2023-07-30T11:17:33;22.90;99.90
5675;DHT22;2860;54.284;10.158;2023-07-30T11:19:59;23.00;99.90
5675;DHT22;2860;54.284;10.158;2023-07-30T11:22:31;23.10;99.90
5675;DHT22;2860;54.284;10.158;2023-07-30T11:24:57;22.80;99.90
5675;DHT22;2860;54.284;10.158;2023-07-30T11:27:23;22.50;99.90
5675;DHT22;2860;54.284;10.158;2023-07-30T11:29:55;22.30;99.90
5675;DHT22;2860;54.284;10.158;2023-07-30T11:32:21;22.20;99.90
5675;DHT22;2860;54.284;10.158;2023-07-30T11:34:51;22.00;99.90
5675;DHT22;2860;54.284;10.158;2023-07-30T11:37:17;21.90;99.90
5675;DHT22;2860;54.284;10.158;2023-07-30T11:39:43;22.10;99.90
5675;DHT22;2860;54.284;10.158;2023-07-30T11:42:08;22.30;99.90
5675;DHT22;2860;54.284;10.158;2023-07-30T11:44:38;22.50;99.90
5675;DHT22;2860;54.284;10.158;2023-07-30T11:47:05;22.40;99.90
5675;DHT22;2860;54.284;10.158;2023-07-30T11:49:30;22.20;99.90
5675;DHT22;2860;54.284;10.158;2023-07-30T11:52:09;22.00;99.90
5675;DHT22;2860;54.284;10.158;2023-07-30T11:54:35;22.10;99.90
5675;DHT22;2860;54.284;10.158;2023-07-30T11:57:00;22.00;99.90
5675;DHT22;2860;54.284;10.158;2023-07-30T11:59:26;21.90;99.90
5675;DHT22;2860;54.284;10.158;2023-07-30T12:01:52;21.90;99.90
5675;DHT22;2860;54.284;10.158;2023-07-30T12:04:18;21.80;99.90
5675;DHT22;2860;54.284;10.158;2023-07-30T12:06:48;21.60;99.90
5675;DHT22;2860;54.284;10.158;2023-07-30T12:09:23;21.60;99.90
5675;DHT22;2860;54.284;10.158;2023-07-30T12:14:18;22.30;99.90
5675;DHT22;2860;54.284;10.158;2023-07-30T12:16:44;22.50;99.90
5675;DHT22;2860;54.284;10.158;2023-07-30T12:19:10;22.70;99.90
5675;DHT22;2860;54.284;10.158;2023-07-30T12:21:35;22.90;99.90
5675;DHT22;2860;54.284;10.158;2023-07-30T12:24:01;22.90;99.90
5675;DHT22;2860;54.284;10.158;2023-07-30T12:26:27;23.00;99.90
5675;DHT22;2860;54.284;10.158;2023-07-30T12:28:52;23.00;99.90
5675;DHT22;2860;54.284;10.158;2023-07-30T12:31:18;23.20;99.90
5675;DHT22;2860;54.284;10.158;2023-07-30T12:33:43;23.40;99.90
5675;DHT22;2860;54.284;10.158;2023-07-30T12:36:09;23.30;99.90
5675;DHT22;2860;54.284;10.158;2023-07-30T12:38:34;23.20;99.90
5675;DHT22;2860;54.284;10.158;2023-07-30T12:41:00;23.20;99.90
5675;DHT22;2860;54.284;10.158;2023-07-30T12:43:25;23.10;99.90
5675;DHT22;2860;54.284;10.158;2023-07-30T12:45:51;23.00;99.90
5675;DHT22;2860;54.284;10.158;2023-07-30T12:48:16;22.80;99.90
5675;DHT22;2860;54.284;10.158;2023-07-30T12:50:42;22.60;99.90
5675;DHT22;2860;54.284;10.158;2023-07-30T12:53:07;22.40;99.90
5675;DHT22;2860;54.284;10.158;2023-07-30T12:55:33;22.30;99.90
5675;DHT22;2860;54.284;10.158;2023-07-30T12:57:59;22.30;99.90
5675;DHT22;2860;54.284;10.158;2023-07-30T13:00:25;22.20;99.90
5675;DHT22;2860;54.284;10.158;2023-07-30T13:02:50;22.10;99.90
5675;DHT22;2860;54.284;10.158;2023-07-30T13:05:20;22.00;99.90
5675;DHT22;2860;54.284;10.158;2023-07-30T13:07:46;21.90;99.90
5675;DHT22;2860;54.284;10.158;2023-07-30T13:10:12;21.80;99.90
5675;DHT22;2860;54.284;10.158;2023-07-30T13:12:37;21.70;99.90
5675;DHT22;2860;54.284;10.158;2023-07-30T13:15:03;21.50;99.90
5675;DHT22;2860;54.284;10.158;2023-07-30T13:17:29;21.30;99.90
5675;DHT22;2860;54.284;10.158;2023-07-30T13:19:55;21.10;99.90
5675;DHT22;2860;54.284;10.158;2023-07-30T13:22:20;20.80;99.90
5675;DHT22;2860;54.284;10.158;2023-07-30T13:24:46;20.40;99.90
5675;DHT22;2860;54.284;10.158;2023-07-30T13:27:11;20.10;99.90
5675;DHT22;2860;54.284;10.158;2023-07-30T13:29:37;20.00;99.90
5675;DHT22;2860;54.284;10.158;2023-07-30T13:32:02;19.80;99.90
5675;DHT22;2860;54.284;10.158;2023-07-30T13:34:28;19.40;99.90
5675;DHT22;2860;54.284;10.158;2023-07-30T13:36:54;18.80;99.90
5675;DHT22;2860;54.284;10.158;2023-07-30T13:39:19;18.10;99.90
5675;DHT22;2860;54.284;10.158;2023-07-30T13:41:45;17.50;99.90
5675;DHT22;2860;54.284;10.158;2023-07-30T13:44:10;17.00;99.90
5675;DHT22;2860;54.284;10.158;2023-07-30T13:46:37;16.70;99.90
5675;DHT22;2860;54.284;10.158;2023-07-30T13:49:03;16.50;99.90
5675;DHT22;2860;54.284;10.158;2023-07-30T13:51:28;16.40;99.90
5675;DHT22;2860;54.284;10.158;2023-07-30T13:53:58;16.30;99.90
5675;DHT22;2860;54.284;10.158;2023-07-30T13:56:25;16.30;99.90
5675;DHT22;2860;54.284;10.158;2023-07-30T13:58:50;16.40;99.90
5675;DHT22;2860;54.284;10.158;2023-07-30T14:01:15;16.40;99.90
5675;DHT22;2860;54.284;10.158;2023-07-30T14:03:41;16.50;99.90
5675;DHT22;2860;54.284;10.158;2023-07-30T14:06:07;16.60;99.90
5675;DHT22;2860;54.284;10.158;2023-07-30T14:08:32;16.70;99.90
5675;DHT22;2860;54.284;10.158;2023-07-30T14:10:58;16.70;99.90
5675;DHT22;2860;54.284;10.158;2023-07-30T14:13:24;16.70;99.90
5675;DHT22;2860;54.284;10.158;2023-07-30T14:15:49;16.70;99.90
5675;DHT22;2860;54.284;10.158;2023-07-30T14:18:15;16.70;99.90
5675;DHT22;2860;54.284;10.158;2023-07-30T14:20:41;16.70;99.90
5675;DHT22;2860;54.284;10.158;2023-07-30T14:23:07;16.70;99.90
5675;DHT22;2860;54.284;10.158;2023-07-30T14:25:32;16.70;99.90
5675;DHT22;2860;54.284;10.158;2023-07-30T14:27:58;16.70;99.90
5675;DHT22;2860;54.284;10.158;2023-07-30T14:30:23;16.80;99.90
5675;DHT22;2860;54.284;10.158;2023-07-30T14:32:49;17.00;99.90
5675;DHT22;2860;54.284;10.158;2023-07-30T14:35:14;17.30;99.90
5675;DHT22;2860;54.284;10.158;2023-07-30T14:37:40;17.80;99.90
5675;DHT22;2860;54.284;10.158;2023-07-30T14:40:06;18.40;99.90
5675;DHT22;2860;54.284;10.158;2023-07-30T14:42:32;18.90;99.90
5675;DHT22;2860;54.284;10.158;2023-07-30T14:44:57;19.00;99.90
5675;DHT22;2860;54.284;10.158;2023-07-30T14:47:23;18.70;99.90
5675;DHT22;2860;54.284;10.158;2023-07-30T14:49:49;18.60;99.90
5675;DHT22;2860;54.284;10.158;2023-07-30T14:52:17;18.70;99.90
5675;DHT22;2860;54.284;10.158;2023-07-30T14:54:44;18.80;99.90
5675;DHT22;2860;54.284;10.158;2023-07-30T14:57:09;18.90;99.90
5675;DHT22;2860;54.284;10.158;2023-07-30T14:59:35;18.90;99.90
5675;DHT22;2860;54.284;10.158;2023-07-30T15:02:00;18.90;99.90
5675;DHT22;2860;54.284;10.158;2023-07-30T15:04:26;18.90;99.90
5675;DHT22;2860;54.284;10.158;2023-07-30T15:06:51;18.90;99.90
5675;DHT22;2860;54.284;10.158;2023-07-30T15:09:17;18.90;99.90
5675;DHT22;2860;54.284;10.158;2023-07-30T15:11:42;18.80;99.90
5675;DHT22;2860;54.284;10.158;2023-07-30T15:14:08;18.70;99.90
5675;DHT22;2860;54.284;10.158;2023-07-30T15:16:33;18.70;99.90
5675;DHT22;2860;54.284;10.158;2023-07-30T15:18:59;18.80;99.90
5675;DHT22;2860;54.284;10.158;2023-07-30T15:21:24;18.90;99.90
5675;DHT22;2860;54.284;10.158;2023-07-30T15:23:50;19.20;99.90
5675;DHT22;2860;54.284;10.158;2023-07-30T15:26:15;19.30;99.90
5675;DHT22;2860;54.284;10.158;2023-07-30T15:28:41;19.40;99.90
5675;DHT22;2860;54.284;10.158;2023-07-30T15:31:07;19.50;99.90
5675;DHT22;2860;54.284;10.158;2023-07-30T15:33:32;19.60;99.90
5675;DHT22;2860;54.284;10.158;2023-07-30T15:35:58;19.60;99.90
5675;DHT22;2860;54.284;10.158;2023-07-30T15:38:23;19.60;99.90
5675;DHT22;2860;54.284;10.158;2023-07-30T15:40:49;19.50;99.90
5675;DHT22;2860;54.284;10.158;2023-07-30T15:43:14;19.40;99.90
5675;DHT22;2860;54.284;10.158;2023-07-30T15:45:40;19.30;99.90
5675;DHT22;2860;54.284;10.158;2023-07-30T15:48:09;19.30;99.90